createdAt,value
2019-02-22T00:01:12.913Z,-2.5
2019-02-22T00:06:09.224Z,-3.2
2019-02-22T00:11:05.710Z,-3.4
2019-02-22T00:16:02.406Z,-2.7
2019-02-22T00:20:59.114Z,-3.3
2019-02-22T00:25:55.539Z,-3.2
2019-02-22T00:30:52.110Z,-3.7
2019-02-22T00:35:48.674Z,-2.9
2019-02-22T00:40:44.806Z,-3.2
2019-02-22T00:45:41.325Z,-3.3
2019-02-22T00:50:37.668Z,-3
2019-02-22T00:55:33.791Z,-2.9
2019-02-22T01:00:30.243Z,-2.9
2019-02-22T01:05:26.094Z,-3.8
2019-02-22T01:10:30.649Z,-4.1
2019-02-22T01:15:25.947Z,-3.8
2019-02-22T01:20:22.389Z,-4
2019-02-22T01:25:18.802Z,-4.1
2019-02-22T01:30:15.310Z,-4.3
2019-02-22T01:35:11.890Z,-3.3
2019-02-22T01:40:07.873Z,-4
2019-02-22T01:45:03.892Z,-4
2019-02-22T01:50:00.366Z,-3.8
2019-02-22T01:54:57.114Z,-3.5
2019-02-22T01:59:53.461Z,-4.1
2019-02-22T02:04:49.821Z,-3.8
2019-02-22T02:09:46.287Z,-4.3
2019-02-22T02:14:42.646Z,-4.4
2019-02-22T02:19:39.139Z,-4.5
2019-02-22T02:24:35.492Z,-4.6
2019-02-22T02:29:31.586Z,-4.6
2019-02-22T02:34:28.280Z,-4.2
2019-02-22T02:39:24.873Z,-4.3
2019-02-22T02:44:21.549Z,-3.9
2019-02-22T02:49:18.143Z,-3.2
2019-02-22T02:54:14.780Z,-4
2019-02-22T02:59:11.455Z,-3.8
2019-02-22T03:04:08.216Z,-3.5
2019-02-22T03:09:04.985Z,-2.5
2019-02-22T03:14:00.931Z,-3.2
2019-02-22T03:18:57.242Z,-3.6
2019-02-22T03:23:52.953Z,-3.1
2019-02-22T03:28:49.739Z,-3.6
2019-02-22T03:33:46.277Z,-3.5
2019-02-22T03:38:43.046Z,-3
2019-02-22T03:43:39.791Z,-3.5
2019-02-22T03:48:36.571Z,-3.1
2019-02-22T03:53:32.274Z,-3.1
2019-02-22T03:58:28.893Z,-3
2019-02-22T04:03:25.880Z,-2
2019-02-22T04:08:22.651Z,-2.8
2019-02-22T04:13:18.727Z,-3.7
2019-02-22T04:18:15.451Z,-3.4
2019-02-22T04:23:12.026Z,-3.3
2019-02-22T04:28:08.323Z,-3.3
2019-02-22T04:33:04.772Z,-3
2019-02-22T04:38:01.110Z,-3.2
2019-02-22T04:42:57.857Z,-2.6
2019-02-22T04:47:54.698Z,-2.8
2019-02-22T04:52:51.304Z,-2.9
2019-02-22T04:57:47.779Z,-3.1
2019-02-22T05:02:44.319Z,-2.6
2019-02-22T05:07:40.900Z,-3.1
2019-02-22T05:12:37.497Z,-3.1
2019-02-22T05:17:35.710Z,-2.2
2019-02-22T05:22:32.202Z,-2.1
2019-02-22T05:27:28.930Z,-2.9
2019-02-22T05:32:27.053Z,-2
2019-02-22T05:37:23.686Z,-2.6
2019-02-22T05:42:23.046Z,-2.7
2019-02-22T05:47:19.234Z,-2.6
2019-02-22T05:52:16.121Z,-2.8
2019-02-22T05:57:14.250Z,-2.5
2019-02-22T06:02:10.854Z,-2.2
2019-02-22T06:07:07.224Z,-2.8
2019-02-22T06:12:04.119Z,-2
2019-02-22T06:17:00.774Z,-2.2
2019-02-22T06:21:57.092Z,-2.3
2019-02-22T06:26:53.685Z,-2.2
2019-02-22T06:31:49.941Z,-2.3
2019-02-22T06:36:46.882Z,-1.5
2019-02-22T06:41:43.390Z,-2.2
2019-02-22T06:46:40.051Z,-2
2019-02-22T06:51:36.618Z,-2
2019-02-22T06:56:33.206Z,-1.6
2019-02-22T07:01:29.883Z,-1.1
2019-02-22T07:06:26.517Z,-1.2
2019-02-22T07:11:23.099Z,-1.8
2019-02-22T07:16:19.530Z,-1.8
2019-02-22T07:21:16.532Z,-0.9
2019-02-22T07:26:13.289Z,-1.3
2019-02-22T07:31:09.767Z,-1.1
2019-02-22T07:36:07.059Z,0
2019-02-22T07:41:03.232Z,-1.2
2019-02-22T07:45:59.196Z,-0.6
2019-02-22T07:50:58.018Z,-1.3
2019-02-22T07:55:54.737Z,-1.1
2019-02-22T08:00:51.427Z,-1
2019-02-22T08:05:47.926Z,-0.8
2019-02-22T08:10:44.205Z,-0.6
2019-02-22T08:15:41.025Z,-1
2019-02-22T08:20:37.474Z,-1.1
2019-02-22T08:25:34.638Z,-0.7
2019-02-22T08:30:31.189Z,-0.8
2019-02-22T08:35:27.704Z,-0.9
2019-02-22T08:40:24.549Z,-0.4
2019-02-22T08:45:20.888Z,0.4
2019-02-22T08:50:17.384Z,-0.7
2019-02-22T08:55:13.978Z,-0.2
2019-02-22T09:00:11.456Z,0
2019-02-22T09:05:08.063Z,0.1
2019-02-22T09:10:04.885Z,0
2019-02-22T09:15:01.822Z,0.8
2019-02-22T09:19:58.331Z,1
2019-02-22T09:24:55.310Z,1.4
2019-02-22T09:29:58.740Z,0.8
2019-02-22T09:34:54.730Z,1.8
2019-02-22T09:39:51.647Z,1.9
2019-02-22T09:44:48.345Z,2.2
2019-02-22T09:49:45.351Z,3
2019-02-22T09:54:41.863Z,1.6
2019-02-22T09:59:37.441Z,1.8
2019-02-22T10:04:34.727Z,2.3
2019-02-22T10:09:31.795Z,1.5
2019-02-22T10:14:28.682Z,2.1
2019-02-22T10:19:25.698Z,2.9
2019-02-22T10:24:22.548Z,2.4
2019-02-22T10:29:18.609Z,2.8
2019-02-22T10:34:15.297Z,3
2019-02-22T10:39:11.825Z,2.7
2019-02-22T10:44:17.342Z,1.8
2019-02-22T10:49:13.280Z,3.3
2019-02-22T10:54:09.362Z,3.2
2019-02-22T10:59:06.092Z,3.3
2019-02-22T11:04:02.872Z,3.3
2019-02-22T11:08:59.110Z,3.1
2019-02-22T11:13:55.868Z,3.3
2019-02-22T11:18:52.379Z,2.3
2019-02-22T11:23:48.987Z,3.5
2019-02-22T11:28:45.587Z,3.6
2019-02-22T11:33:41.302Z,2.2
2019-02-22T11:38:37.565Z,3.2
2019-02-22T11:43:34.444Z,3.5
2019-02-22T11:48:31.349Z,4.1
2019-02-22T11:53:28.115Z,3.5
2019-02-22T11:58:24.552Z,4.1
2019-02-22T12:03:24.485Z,3.9
2019-02-22T12:08:20.604Z,3.7
2019-02-22T12:13:17.160Z,4
2019-02-22T12:18:14.053Z,4.1
2019-02-22T12:23:10.569Z,3.9
2019-02-22T12:28:07.251Z,3.9
2019-02-22T12:33:04.229Z,3.8
2019-02-22T12:38:00.201Z,3.7
2019-02-22T12:42:56.435Z,3.9
2019-02-22T12:47:52.797Z,3.9
2019-02-22T12:52:49.277Z,3.8
2019-02-22T12:57:45.989Z,3.7
2019-02-22T13:02:42.606Z,3.7
2019-02-22T13:07:40.268Z,4.1
2019-02-22T13:12:37.019Z,4
2019-02-22T13:17:33.985Z,4.3
2019-02-22T13:22:30.583Z,4.1
2019-02-22T13:27:27.728Z,4.5
2019-02-22T13:32:24.091Z,4.2
2019-02-22T13:37:20.683Z,4.1
2019-02-22T13:42:17.331Z,4.2
2019-02-22T13:47:13.975Z,3.3
2019-02-22T13:52:10.007Z,4
2019-02-22T13:57:06.413Z,3.8
2019-02-22T14:02:03.362Z,4
2019-02-22T14:07:00.200Z,4.1
2019-02-22T14:11:56.982Z,4.2
2019-02-22T14:16:53.086Z,3.6
2019-02-22T14:21:50.052Z,4.3
2019-02-22T14:26:46.349Z,3.8
2019-02-22T14:31:42.940Z,3.8
2019-02-22T14:36:39.489Z,3.7
2019-02-22T14:41:37.388Z,3.7
2019-02-22T14:46:33.957Z,3.8
2019-02-22T14:51:30.853Z,3.8
2019-02-22T14:56:27.314Z,3.6
2019-02-22T15:01:23.666Z,3.6
2019-02-22T15:06:20.376Z,3.4
2019-02-22T15:11:17.073Z,3.5
2019-02-22T15:16:13.877Z,3.6
2019-02-22T15:21:10.261Z,3.4
2019-02-22T15:26:06.741Z,2
2019-02-22T15:31:03.426Z,3.2
2019-02-22T15:36:00.256Z,3.2
2019-02-22T15:40:56.578Z,3.2
2019-02-22T15:45:53.175Z,3.2
2019-02-22T15:50:49.867Z,3.1
2019-02-22T15:55:46.420Z,3
2019-02-22T16:00:42.945Z,2.9
2019-02-22T16:05:40.001Z,3
2019-02-22T16:10:36.707Z,3
2019-02-22T16:15:32.849Z,2.8
2019-02-22T16:20:29.846Z,2.3
2019-02-22T16:25:26.590Z,3
2019-02-22T16:30:23.374Z,3
2019-02-22T16:35:20.145Z,3
2019-02-22T16:40:16.962Z,3
2019-02-22T16:45:13.858Z,2.9
2019-02-22T16:50:10.400Z,2.9
2019-02-22T16:55:07.282Z,2.9
2019-02-22T17:00:04.122Z,2.9
2019-02-22T17:05:01.013Z,2.9
2019-02-22T17:09:57.774Z,2.8
2019-02-22T17:14:54.533Z,2.9
2019-02-22T17:19:51.124Z,2.9
2019-02-22T17:24:47.081Z,2.9
2019-02-22T17:29:43.750Z,2.9
2019-02-22T17:34:40.561Z,2.8
2019-02-22T17:39:36.688Z,2.5
2019-02-22T17:44:33.446Z,2.7
2019-02-22T17:49:30.016Z,2.6
2019-02-22T17:54:26.861Z,2.7
2019-02-22T17:59:23.684Z,2.6
2019-02-22T18:04:20.479Z,2.6
2019-02-22T18:09:17.167Z,2
2019-02-22T18:14:14.122Z,2.7
2019-02-22T18:19:10.843Z,2.6
2019-02-22T18:24:07.800Z,2.7
2019-02-22T18:29:04.544Z,2.7
2019-02-22T18:34:01.410Z,2.7
2019-02-22T18:38:58.084Z,2.7
2019-02-22T18:43:55.016Z,2.7
2019-02-22T18:48:51.750Z,2.7
2019-02-22T18:53:48.675Z,2.7
2019-02-22T18:58:45.388Z,2.6
2019-02-22T19:03:41.912Z,2.6
2019-02-22T19:08:38.630Z,2.6
2019-02-22T19:13:35.203Z,2.6
2019-02-22T19:18:31.902Z,2.6
2019-02-22T19:23:28.773Z,2.6
2019-02-22T19:28:25.743Z,2
2019-02-22T19:33:22.608Z,2.6
2019-02-22T19:38:19.260Z,2.6
2019-02-22T19:43:16.103Z,2.4
2019-02-22T19:48:12.494Z,2.3
2019-02-22T19:53:09.079Z,2.5
2019-02-22T19:58:05.668Z,2.5
2019-02-22T20:03:02.608Z,2.5
2019-02-22T20:07:59.312Z,2.5
2019-02-22T20:12:55.855Z,2.5
2019-02-22T20:17:54.766Z,2.4
2019-02-22T20:22:51.383Z,2.5
2019-02-22T20:27:48.201Z,2.5
2019-02-22T20:32:45.205Z,2.4
2019-02-22T20:37:41.946Z,2.5
2019-02-22T20:42:47.188Z,2.5
2019-02-22T20:47:43.911Z,2.5
2019-02-22T20:52:40.438Z,1.2
2019-02-22T20:57:36.930Z,2.3
2019-02-22T21:02:33.951Z,2.3
2019-02-22T21:07:30.755Z,2.3
2019-02-22T21:12:27.842Z,1.6
2019-02-22T21:17:24.830Z,2.3
2019-02-22T21:22:21.634Z,2.3
2019-02-22T21:27:17.812Z,2.3
2019-02-22T21:32:14.847Z,2.1
2019-02-22T21:37:11.662Z,2.3
2019-02-22T21:42:07.811Z,2.1
2019-02-22T21:47:04.704Z,2.3
2019-02-22T21:52:01.576Z,2.3
2019-02-22T21:56:58.177Z,2.4
2019-02-22T22:01:54.959Z,2.4
2019-02-22T22:06:51.183Z,2.3
2019-02-22T22:11:48.114Z,2.4
2019-02-22T22:16:45.138Z,2.3
2019-02-22T22:21:41.817Z,2.4
2019-02-22T22:26:38.575Z,2.1
2019-02-22T22:31:35.474Z,1.6
2019-02-22T22:36:32.151Z,2.3
2019-02-22T22:41:28.779Z,2
2019-02-22T22:46:36.377Z,2.2
2019-02-22T22:51:32.052Z,2.2
2019-02-22T22:56:28.882Z,2.4
2019-02-22T23:01:25.441Z,1.4
2019-02-22T23:06:21.192Z,1.6
2019-02-22T23:11:17.548Z,1.3
2019-02-22T23:16:13.801Z,0.8
2019-02-22T23:21:09.940Z,0.4
2019-02-22T23:26:06.145Z,-0.5
2019-02-22T23:31:02.520Z,-0.1
2019-02-22T23:36:00.236Z,-0.6
2019-02-22T23:40:56.447Z,-1.2
2019-02-22T23:45:52.887Z,-0.8
2019-02-22T23:50:49.487Z,-1.4
2019-02-22T23:55:46.102Z,-1.5
